createdAt,value
2019-01-30T00:00:09.493Z,3.80
2019-01-30T00:00:49.497Z,4.07
2019-01-30T00:01:28.212Z,4.33
2019-01-30T00:02:04.450Z,3.80
2019-01-30T00:02:40.627Z,3.97
2019-01-30T00:03:16.960Z,4.30
2019-01-30T00:03:53.216Z,3.60
2019-01-30T00:04:29.346Z,4.83
2019-01-30T00:05:05.539Z,4.90
2019-01-30T00:05:41.594Z,3.37
2019-01-30T00:06:17.728Z,3.60
2019-01-30T00:06:53.822Z,3.70
2019-01-30T00:07:30.007Z,4.10
2019-01-30T00:08:06.393Z,3.97
2019-01-30T00:08:42.532Z,4.87
2019-01-30T00:09:18.521Z,4.37
2019-01-30T00:09:54.695Z,3.80
2019-01-30T00:10:30.848Z,4.40
2019-01-30T00:11:07.086Z,4.53
2019-01-30T00:11:43.399Z,3.87
2019-01-30T00:12:19.490Z,4.00
2019-01-30T00:12:55.866Z,4.30
2019-01-30T00:13:32.133Z,3.60
2019-01-30T00:14:08.442Z,4.30
2019-01-30T00:14:44.778Z,3.90
2019-01-30T00:15:20.862Z,3.90
2019-01-30T00:15:57.204Z,3.80
2019-01-30T00:16:33.277Z,4.50
2019-01-30T00:17:09.499Z,3.60
2019-01-30T00:17:45.556Z,4.03
2019-01-30T00:18:21.610Z,4.27
2019-01-30T00:18:57.816Z,4.30
2019-01-30T00:19:33.872Z,3.00
2019-01-30T00:20:10.552Z,4.07
2019-01-30T00:20:46.670Z,4.10
2019-01-30T00:21:22.736Z,4.50
2019-01-30T00:21:58.718Z,3.40
2019-01-30T00:22:34.897Z,4.27
2019-01-30T00:23:10.961Z,4.00
2019-01-30T00:23:47.057Z,4.13
2019-01-30T00:24:23.095Z,4.57
2019-01-30T00:24:59.348Z,4.07
2019-01-30T00:25:35.551Z,4.30
2019-01-30T00:26:11.814Z,3.43
2019-01-30T00:26:47.934Z,4.00
2019-01-30T00:27:23.991Z,3.93
2019-01-30T00:28:00.213Z,4.37
2019-01-30T00:28:36.586Z,4.20
2019-01-30T00:29:12.910Z,3.37
2019-01-30T00:29:49.119Z,3.70
2019-01-30T00:30:25.430Z,3.63
2019-01-30T00:31:01.660Z,3.27
2019-01-30T00:31:37.931Z,3.63
2019-01-30T00:32:15.133Z,4.00
2019-01-30T00:32:51.353Z,5.23
2019-01-30T00:33:27.591Z,4.37
2019-01-30T00:34:03.688Z,3.90
2019-01-30T00:34:39.828Z,3.80
2019-01-30T00:35:16.146Z,4.10
2019-01-30T00:35:52.445Z,5.33
2019-01-30T00:36:28.642Z,3.70
2019-01-30T00:37:04.655Z,4.20
2019-01-30T00:37:40.983Z,4.60
2019-01-30T00:38:17.299Z,4.23
2019-01-30T00:38:53.388Z,4.57
2019-01-30T00:39:29.471Z,3.50
2019-01-30T00:40:06.413Z,3.50
2019-01-30T00:40:42.630Z,4.20
2019-01-30T00:41:18.851Z,2.80
2019-01-30T00:41:54.896Z,3.10
2019-01-30T00:42:31.072Z,3.23
2019-01-30T00:43:07.195Z,3.47
2019-01-30T00:43:43.301Z,3.60
2019-01-30T00:44:19.452Z,4.50
2019-01-30T00:44:56.074Z,3.90
2019-01-30T00:45:32.106Z,3.90
2019-01-30T00:46:08.265Z,4.33
2019-01-30T00:46:44.461Z,3.80
2019-01-30T00:47:20.787Z,3.50
2019-01-30T00:47:57.000Z,4.60
2019-01-30T00:48:33.247Z,4.93
2019-01-30T00:49:09.517Z,5.43
2019-01-30T00:49:45.699Z,4.13
2019-01-30T00:50:22.036Z,4.07
2019-01-30T00:50:58.077Z,4.33
2019-01-30T00:51:34.230Z,3.97
2019-01-30T00:52:10.328Z,4.07
2019-01-30T00:52:46.614Z,4.83
2019-01-30T00:53:22.696Z,4.37
2019-01-30T00:53:58.898Z,3.97
2019-01-30T00:54:35.103Z,3.83
2019-01-30T00:55:11.851Z,4.23
2019-01-30T00:55:47.913Z,4.40
2019-01-30T00:56:24.244Z,4.20
2019-01-30T00:57:00.618Z,4.27
2019-01-30T00:57:36.713Z,4.07
2019-01-30T00:58:13.023Z,4.60
2019-01-30T00:58:49.120Z,3.57
2019-01-30T00:59:25.210Z,4.23
2019-01-30T01:00:01.268Z,4.60
2019-01-30T01:00:37.397Z,4.53
2019-01-30T01:01:13.536Z,3.20
2019-01-30T01:01:49.717Z,3.73
2019-01-30T01:02:26.080Z,6.37
2019-01-30T01:03:02.089Z,3.97
2019-01-30T01:03:38.368Z,3.77
2019-01-30T01:04:14.611Z,3.90
2019-01-30T01:04:50.884Z,3.57
2019-01-30T01:05:27.087Z,4.37
2019-01-30T01:06:03.567Z,3.20
2019-01-30T01:06:40.227Z,3.27
2019-01-30T01:07:16.286Z,3.77
2019-01-30T01:07:52.541Z,4.50
2019-01-30T01:08:28.861Z,3.20
2019-01-30T01:09:08.387Z,4.00
2019-01-30T01:09:44.566Z,4.20
2019-01-30T01:10:21.019Z,3.53
2019-01-30T01:10:57.163Z,3.77
2019-01-30T01:11:33.327Z,4.40
2019-01-30T01:12:09.499Z,3.80
2019-01-30T01:12:45.911Z,3.70
2019-01-30T01:13:22.179Z,3.77
2019-01-30T01:13:58.224Z,4.17
2019-01-30T01:14:34.420Z,3.40
2019-01-30T01:15:13.014Z,4.00
2019-01-30T01:15:49.237Z,3.67
2019-01-30T01:16:25.535Z,4.43
2019-01-30T01:17:01.754Z,3.53
2019-01-30T01:17:38.167Z,3.90
2019-01-30T01:18:14.263Z,4.30
2019-01-30T01:18:50.540Z,3.93
2019-01-30T01:19:26.607Z,4.10
2019-01-30T01:20:02.920Z,3.70
2019-01-30T01:20:39.040Z,3.53
2019-01-30T01:21:15.040Z,3.50
2019-01-30T01:21:51.377Z,3.83
2019-01-30T01:22:27.499Z,4.73
2019-01-30T01:23:03.614Z,3.90
2019-01-30T01:23:39.771Z,4.83
2019-01-30T01:24:15.974Z,2.90
2019-01-30T01:24:52.069Z,4.13
2019-01-30T01:25:28.329Z,3.10
2019-01-30T01:26:04.492Z,4.10
2019-01-30T01:26:40.699Z,4.00
2019-01-30T01:27:16.822Z,4.60
2019-01-30T01:27:52.963Z,3.40
2019-01-30T01:28:29.235Z,2.67
2019-01-30T01:29:05.419Z,3.60
2019-01-30T01:29:41.687Z,3.10
2019-01-30T01:30:25.172Z,3.30
2019-01-30T01:30:58.158Z,3.67
2019-01-30T01:31:35.147Z,3.47
2019-01-30T01:32:11.367Z,3.57
2019-01-30T01:32:47.483Z,3.77
2019-01-30T01:33:25.298Z,3.67
2019-01-30T01:34:01.305Z,3.80
2019-01-30T01:34:37.551Z,3.30
2019-01-30T01:35:14.042Z,3.00
2019-01-30T01:35:50.243Z,4.27
2019-01-30T01:36:26.435Z,3.60
2019-01-30T01:37:02.498Z,3.30
2019-01-30T01:37:38.592Z,3.50
2019-01-30T01:38:14.690Z,3.30
2019-01-30T01:38:50.845Z,3.73
2019-01-30T01:39:27.036Z,3.57
2019-01-30T01:40:03.329Z,4.10
2019-01-30T01:40:39.492Z,3.10
2019-01-30T01:41:15.721Z,3.13
2019-01-30T01:41:51.926Z,3.33
2019-01-30T01:42:28.199Z,3.77
2019-01-30T01:43:04.502Z,3.10
2019-01-30T01:43:40.760Z,4.17
2019-01-30T01:44:16.857Z,3.23
2019-01-30T01:44:53.097Z,4.27
2019-01-30T01:45:29.169Z,3.40
2019-01-30T01:46:05.462Z,2.83
2019-01-30T01:46:41.627Z,2.90
2019-01-30T01:47:17.939Z,3.67
2019-01-30T01:47:54.169Z,3.00
2019-01-30T01:48:30.427Z,4.43
2019-01-30T01:49:06.429Z,4.10
2019-01-30T01:49:42.731Z,2.60
2019-01-30T01:50:20.888Z,3.17
2019-01-30T01:50:57.100Z,3.63
2019-01-30T01:51:33.277Z,3.00
2019-01-30T01:52:09.425Z,2.80
2019-01-30T01:52:45.662Z,3.23
2019-01-30T01:53:21.638Z,3.73
2019-01-30T01:53:57.816Z,3.87
2019-01-30T01:54:34.039Z,3.60
2019-01-30T01:55:10.693Z,3.40
2019-01-30T01:55:47.027Z,3.90
2019-01-30T01:56:23.118Z,3.60
2019-01-30T01:56:59.184Z,3.20
2019-01-30T01:57:35.177Z,3.63
2019-01-30T01:58:11.292Z,4.43
2019-01-30T01:58:47.420Z,3.03
2019-01-30T01:59:23.685Z,3.23
2019-01-30T01:59:59.887Z,3.77
2019-01-30T02:00:36.068Z,3.40
2019-01-30T02:01:12.254Z,3.80
2019-01-30T02:01:48.366Z,4.13
2019-01-30T02:02:24.403Z,4.37
2019-01-30T02:03:00.736Z,3.53
2019-01-30T02:03:36.986Z,3.80
2019-01-30T02:04:13.105Z,4.23
2019-01-30T02:04:49.390Z,3.00
2019-01-30T02:05:25.777Z,3.17
2019-01-30T02:06:01.798Z,4.43
2019-01-30T02:06:38.078Z,3.23
2019-01-30T02:07:14.295Z,3.60
2019-01-30T02:07:50.614Z,3.10
2019-01-30T02:08:26.721Z,3.80
2019-01-30T02:09:03.891Z,3.37
2019-01-30T02:09:40.158Z,3.70
2019-01-30T02:10:18.221Z,3.20
2019-01-30T02:10:54.535Z,3.50
2019-01-30T02:11:30.534Z,3.50
2019-01-30T02:12:06.839Z,3.10
2019-01-30T02:12:43.131Z,3.93
2019-01-30T02:13:19.324Z,3.60
2019-01-30T02:13:55.454Z,4.23
2019-01-30T02:14:31.623Z,3.90
2019-01-30T02:15:09.686Z,3.33
2019-01-30T02:15:45.806Z,4.10
2019-01-30T02:16:21.808Z,3.23
2019-01-30T02:16:57.907Z,4.80
2019-01-30T02:17:33.943Z,4.03
2019-01-30T02:18:10.141Z,3.50
2019-01-30T02:18:46.204Z,5.50
2019-01-30T02:19:22.469Z,3.40
2019-01-30T02:19:58.601Z,4.10
2019-01-30T02:20:35.555Z,3.40
2019-01-30T02:21:11.585Z,4.17
2019-01-30T02:21:47.840Z,3.83
2019-01-30T02:22:23.969Z,3.63
2019-01-30T02:23:00.117Z,3.83
2019-01-30T02:23:36.365Z,3.80
2019-01-30T02:24:12.499Z,3.17
2019-01-30T02:24:48.577Z,3.70
2019-01-30T02:25:24.987Z,4.07
2019-01-30T02:26:01.297Z,3.83
2019-01-30T02:26:37.511Z,3.67
2019-01-30T02:27:14.822Z,3.47
2019-01-30T02:27:50.953Z,4.23
2019-01-30T02:28:27.106Z,3.10
2019-01-30T02:29:03.361Z,3.73
2019-01-30T02:29:39.563Z,3.73
2019-01-30T02:30:18.547Z,3.77
2019-01-30T02:30:54.657Z,4.00
2019-01-30T02:31:31.008Z,3.50
2019-01-30T02:32:07.074Z,3.60
2019-01-30T02:32:43.107Z,3.40
2019-01-30T02:33:19.234Z,4.40
2019-01-30T02:33:55.372Z,3.70
2019-01-30T02:34:31.553Z,3.30
2019-01-30T02:35:07.950Z,4.47
2019-01-30T02:35:44.084Z,4.40
2019-01-30T02:36:20.408Z,4.30
2019-01-30T02:36:59.918Z,3.20
2019-01-30T02:37:36.074Z,3.70
2019-01-30T02:38:12.146Z,3.70
2019-01-30T02:38:48.423Z,3.57
2019-01-30T02:39:24.718Z,3.33
2019-01-30T02:40:00.837Z,4.27
2019-01-30T02:40:36.783Z,3.33
2019-01-30T02:41:12.900Z,4.03
2019-01-30T02:41:49.000Z,4.40
2019-01-30T02:42:25.221Z,4.00
2019-01-30T02:43:01.487Z,3.90
2019-01-30T02:43:37.658Z,3.80
2019-01-30T02:44:13.818Z,3.57
2019-01-30T02:44:49.954Z,3.80
2019-01-30T02:45:27.163Z,3.60
2019-01-30T02:46:03.246Z,4.00
2019-01-30T02:46:39.418Z,3.67
2019-01-30T02:47:15.709Z,4.57
2019-01-30T02:47:51.799Z,4.20
2019-01-30T02:48:27.917Z,3.40
2019-01-30T02:49:04.072Z,3.63
2019-01-30T02:49:40.290Z,4.90
2019-01-30T02:50:18.168Z,4.80
2019-01-30T02:50:54.397Z,5.00
2019-01-30T02:51:30.590Z,4.10
2019-01-30T02:52:06.896Z,4.67
2019-01-30T02:52:42.968Z,3.77
2019-01-30T02:53:19.111Z,3.90
2019-01-30T02:53:55.349Z,4.70
2019-01-30T02:54:31.445Z,5.40
2019-01-30T02:55:09.066Z,4.93
2019-01-30T02:55:45.159Z,4.90
2019-01-30T02:56:21.205Z,3.67
2019-01-30T02:56:57.250Z,5.10
2019-01-30T02:57:33.273Z,5.17
2019-01-30T02:58:09.384Z,5.53
2019-01-30T02:58:45.570Z,4.93
2019-01-30T02:59:21.740Z,4.37
2019-01-30T02:59:58.058Z,4.43
2019-01-30T03:00:35.707Z,4.80
2019-01-30T03:01:11.862Z,5.87
2019-01-30T03:01:58.497Z,5.27
2019-01-30T03:02:34.826Z,4.10
2019-01-30T03:03:11.153Z,4.97
2019-01-30T03:03:47.359Z,5.20
2019-01-30T03:04:23.320Z,3.80
2019-01-30T03:04:59.539Z,4.33
2019-01-30T03:05:35.940Z,4.73
2019-01-30T03:06:12.109Z,4.23
2019-01-30T03:06:48.387Z,4.73
2019-01-30T03:07:24.561Z,4.90
2019-01-30T03:08:00.745Z,4.60
2019-01-30T03:08:36.902Z,4.93
2019-01-30T03:09:13.000Z,5.20
2019-01-30T03:09:49.166Z,5.43
2019-01-30T03:10:25.672Z,4.73
2019-01-30T03:11:01.827Z,4.53
2019-01-30T03:11:38.092Z,5.27
2019-01-30T03:12:14.175Z,4.97
2019-01-30T03:12:50.320Z,4.33
2019-01-30T03:13:26.484Z,5.33
2019-01-30T03:14:02.749Z,5.47
2019-01-30T03:14:38.916Z,5.70
2019-01-30T03:15:15.396Z,5.13
2019-01-30T03:15:51.468Z,4.60
2019-01-30T03:16:27.677Z,6.30
2019-01-30T03:17:04.085Z,4.90
2019-01-30T03:17:40.136Z,5.30
2019-01-30T03:18:16.124Z,5.23
2019-01-30T03:18:52.394Z,4.20
2019-01-30T03:19:28.601Z,4.93
2019-01-30T03:20:05.190Z,5.47
2019-01-30T03:20:41.318Z,5.00
2019-01-30T03:21:17.388Z,4.60
2019-01-30T03:21:53.525Z,4.80
2019-01-30T03:22:29.843Z,5.07
2019-01-30T03:23:06.105Z,4.60
2019-01-30T03:23:42.395Z,4.90
2019-01-30T03:24:18.475Z,5.33
2019-01-30T03:24:54.543Z,5.63
2019-01-30T03:25:30.653Z,4.97
2019-01-30T03:26:06.837Z,5.57
2019-01-30T03:26:42.862Z,5.00
2019-01-30T03:27:19.067Z,5.73
2019-01-30T03:27:55.218Z,5.70
2019-01-30T03:28:31.355Z,6.50
2019-01-30T03:29:07.371Z,5.37
2019-01-30T03:29:43.491Z,6.57
2019-01-30T03:30:30.638Z,5.30
2019-01-30T03:31:17.941Z,5.60
2019-01-30T03:31:46.722Z,6.10
2019-01-30T03:32:22.932Z,5.70
2019-01-30T03:32:59.229Z,5.30
2019-01-30T03:33:35.554Z,4.67
2019-01-30T03:34:11.761Z,5.83
2019-01-30T03:34:48.112Z,5.77
2019-01-30T03:35:24.212Z,4.43
2019-01-30T03:36:00.496Z,5.37
2019-01-30T03:36:36.669Z,5.63
2019-01-30T03:37:13.191Z,5.80
2019-01-30T03:37:49.304Z,4.60
2019-01-30T03:38:25.269Z,5.17
2019-01-30T03:39:01.231Z,4.60
2019-01-30T03:39:37.414Z,4.67
2019-01-30T03:40:17.012Z,5.77
2019-01-30T03:40:52.967Z,5.70
2019-01-30T03:41:29.094Z,5.13
2019-01-30T03:42:05.123Z,4.93
2019-01-30T03:42:41.343Z,5.63
2019-01-30T03:43:17.887Z,5.10
2019-01-30T03:43:53.997Z,5.40
2019-01-30T03:44:30.164Z,5.63
2019-01-30T03:45:07.480Z,6.03
2019-01-30T03:45:43.915Z,4.80
2019-01-30T03:46:20.069Z,5.30
2019-01-30T03:46:56.192Z,6.20
2019-01-30T03:47:32.493Z,5.77
2019-01-30T03:48:08.664Z,5.30
2019-01-30T03:48:44.753Z,5.90
2019-01-30T03:49:20.939Z,4.97
2019-01-30T03:49:57.142Z,5.93
2019-01-30T03:50:33.299Z,5.00
2019-01-30T03:51:09.486Z,5.17
2019-01-30T03:51:45.808Z,5.90
2019-01-30T03:52:21.981Z,5.40
2019-01-30T03:52:57.977Z,5.50
2019-01-30T03:53:34.140Z,5.20
2019-01-30T03:54:10.438Z,5.37
2019-01-30T03:54:46.845Z,5.13
2019-01-30T03:55:22.952Z,5.40
2019-01-30T03:55:59.051Z,5.57
2019-01-30T03:56:35.206Z,5.80
2019-01-30T03:57:11.435Z,4.33
2019-01-30T03:57:47.514Z,5.10
2019-01-30T03:58:23.772Z,5.13
2019-01-30T03:58:59.959Z,5.70
2019-01-30T03:59:36.210Z,5.47
2019-01-30T04:00:15.852Z,5.03
2019-01-30T04:00:51.952Z,5.10
2019-01-30T04:01:28.052Z,5.67
2019-01-30T04:02:04.149Z,4.10
2019-01-30T04:02:40.287Z,5.67
2019-01-30T04:03:16.348Z,4.33
2019-01-30T04:03:52.485Z,5.27
2019-01-30T04:04:28.616Z,4.53
2019-01-30T04:05:04.838Z,6.20
2019-01-30T04:05:40.974Z,5.00
2019-01-30T04:06:17.433Z,5.20
2019-01-30T04:06:53.360Z,5.40
2019-01-30T04:07:29.448Z,4.70
2019-01-30T04:08:05.550Z,4.93
2019-01-30T04:08:41.651Z,5.70
2019-01-30T04:09:17.828Z,5.40
2019-01-30T04:09:53.990Z,5.20
2019-01-30T04:10:30.069Z,5.17
2019-01-30T04:11:06.124Z,5.63
2019-01-30T04:11:42.416Z,5.13
2019-01-30T04:12:18.722Z,5.60
2019-01-30T04:12:55.042Z,5.77
2019-01-30T04:13:31.116Z,5.97
2019-01-30T04:14:07.163Z,6.63
2019-01-30T04:14:43.332Z,5.80
2019-01-30T04:15:19.862Z,7.27
2019-01-30T04:15:56.009Z,6.87
2019-01-30T04:16:32.151Z,6.90
2019-01-30T04:17:08.280Z,5.67
2019-01-30T04:17:44.682Z,5.90
2019-01-30T04:18:20.807Z,6.10
2019-01-30T04:18:57.029Z,6.13
2019-01-30T04:19:33.142Z,5.33
2019-01-30T04:20:10.590Z,5.60
2019-01-30T04:20:46.859Z,6.00
2019-01-30T04:21:23.038Z,6.10
2019-01-30T04:21:59.327Z,5.83
2019-01-30T04:22:35.500Z,5.90
2019-01-30T04:23:11.818Z,5.80
2019-01-30T04:23:47.965Z,5.67
2019-01-30T04:24:24.157Z,4.70
2019-01-30T04:25:00.284Z,5.57
2019-01-30T04:25:36.585Z,4.97
2019-01-30T04:26:12.699Z,6.03
2019-01-30T04:26:48.898Z,4.83
2019-01-30T04:27:25.105Z,6.07
2019-01-30T04:28:01.253Z,4.90
2019-01-30T04:28:37.449Z,4.93
2019-01-30T04:29:13.704Z,5.87
2019-01-30T04:29:49.802Z,5.83
2019-01-30T04:30:26.863Z,6.30
2019-01-30T04:31:03.069Z,5.50
2019-01-30T04:31:39.294Z,5.43
2019-01-30T04:32:15.446Z,5.60
2019-01-30T04:32:51.749Z,6.30
2019-01-30T04:33:27.960Z,5.37
2019-01-30T04:34:04.033Z,5.70
2019-01-30T04:34:40.130Z,5.23
2019-01-30T04:35:16.463Z,5.80
2019-01-30T04:35:52.543Z,6.30
2019-01-30T04:36:28.901Z,7.03
2019-01-30T04:37:04.897Z,5.77
2019-01-30T04:37:41.133Z,4.23
2019-01-30T04:38:17.194Z,6.10
2019-01-30T04:38:53.366Z,5.90
2019-01-30T04:39:29.540Z,6.37
2019-01-30T04:40:06.165Z,5.47
2019-01-30T04:40:42.309Z,6.13
2019-01-30T04:41:18.600Z,6.60
2019-01-30T04:41:54.684Z,5.57
2019-01-30T04:42:30.785Z,5.60
2019-01-30T04:43:07.000Z,4.50
2019-01-30T04:43:43.165Z,6.20
2019-01-30T04:44:19.485Z,5.73
2019-01-30T04:44:55.686Z,5.40
2019-01-30T04:45:31.860Z,5.33
2019-01-30T04:46:08.334Z,4.67
2019-01-30T04:46:44.469Z,5.33
2019-01-30T04:47:20.705Z,5.70
2019-01-30T04:47:56.807Z,5.40
2019-01-30T04:48:32.883Z,4.63
2019-01-30T04:49:09.138Z,5.70
2019-01-30T04:49:45.165Z,4.30
2019-01-30T04:50:21.442Z,5.80
2019-01-30T04:50:57.707Z,5.73
2019-01-30T04:51:34.011Z,5.13
2019-01-30T04:52:10.339Z,5.33
2019-01-30T04:52:46.415Z,5.17
2019-01-30T04:53:22.523Z,5.20
2019-01-30T04:53:58.570Z,5.90
2019-01-30T04:54:34.635Z,5.93
2019-01-30T04:55:10.940Z,5.17
2019-01-30T04:55:47.173Z,4.57
2019-01-30T04:56:23.355Z,6.37
2019-01-30T04:56:59.484Z,6.67
2019-01-30T04:57:35.634Z,6.03
2019-01-30T04:58:11.891Z,5.60
2019-01-30T04:58:48.163Z,5.87
2019-01-30T04:59:24.183Z,4.60
2019-01-30T05:00:00.343Z,5.57
2019-01-30T05:00:36.391Z,5.10
2019-01-30T05:01:12.542Z,4.73
2019-01-30T05:01:49.793Z,4.53
2019-01-30T05:02:26.256Z,5.53
2019-01-30T05:03:02.423Z,5.87
2019-01-30T05:03:38.692Z,5.80
2019-01-30T05:04:14.801Z,4.93
2019-01-30T05:04:51.071Z,5.67
2019-01-30T05:05:27.250Z,5.00
2019-01-30T05:06:03.434Z,4.73
2019-01-30T05:06:39.459Z,4.70
2019-01-30T05:07:15.508Z,5.20
2019-01-30T05:07:51.604Z,4.90
2019-01-30T05:08:27.793Z,5.53
2019-01-30T05:09:05.066Z,5.07
2019-01-30T05:09:41.296Z,4.43
2019-01-30T05:10:17.505Z,5.40
2019-01-30T05:10:53.761Z,5.20
2019-01-30T05:11:29.949Z,4.97
2019-01-30T05:12:06.177Z,4.90
2019-01-30T05:12:42.449Z,4.03
2019-01-30T05:13:18.497Z,3.87
2019-01-30T05:13:54.577Z,4.80
2019-01-30T05:14:30.661Z,3.60
2019-01-30T05:15:08.022Z,4.13
2019-01-30T05:15:44.314Z,3.83
2019-01-30T05:16:20.515Z,3.57
2019-01-30T05:16:56.658Z,4.70
2019-01-30T05:17:32.859Z,3.77
2019-01-30T05:18:09.165Z,5.10
2019-01-30T05:18:45.269Z,4.80
2019-01-30T05:19:21.473Z,4.30
2019-01-30T05:19:57.714Z,4.73
2019-01-30T05:20:34.001Z,4.27
2019-01-30T05:21:10.231Z,4.40
2019-01-30T05:21:46.272Z,4.30
2019-01-30T05:22:22.463Z,4.80
2019-01-30T05:22:58.587Z,4.30
2019-01-30T05:23:34.691Z,4.97
2019-01-30T05:24:10.875Z,3.67
2019-01-30T05:24:47.192Z,4.90
2019-01-30T05:25:23.242Z,4.20
2019-01-30T05:26:00.080Z,4.50
2019-01-30T05:26:36.281Z,4.80
2019-01-30T05:27:12.364Z,4.60
2019-01-30T05:27:48.543Z,4.30
2019-01-30T05:28:24.800Z,4.10
2019-01-30T05:29:00.830Z,4.30
2019-01-30T05:29:36.948Z,4.80
2019-01-30T05:30:27.419Z,4.27
2019-01-30T05:31:03.441Z,4.40
2019-01-30T05:31:39.423Z,4.60
2019-01-30T05:32:15.696Z,4.33
2019-01-30T05:32:52.223Z,4.70
2019-01-30T05:33:28.316Z,4.53
2019-01-30T05:34:04.555Z,5.20
2019-01-30T05:34:40.693Z,5.30
2019-01-30T05:35:17.018Z,4.90
2019-01-30T05:35:53.294Z,5.43
2019-01-30T05:36:29.340Z,4.30
2019-01-30T05:37:05.358Z,4.83
2019-01-30T05:37:41.570Z,4.37
2019-01-30T05:38:17.652Z,5.83
2019-01-30T05:38:54.091Z,5.60
2019-01-30T05:39:30.194Z,5.77
2019-01-30T05:40:07.361Z,4.90
2019-01-30T05:40:43.465Z,5.83
2019-01-30T05:41:19.650Z,6.00
2019-01-30T05:41:55.867Z,5.80
2019-01-30T05:42:32.150Z,5.10
2019-01-30T05:43:08.197Z,5.27
2019-01-30T05:43:44.390Z,5.97
2019-01-30T05:44:20.468Z,5.90
2019-01-30T05:44:56.692Z,5.73
2019-01-30T05:45:32.990Z,5.80
2019-01-30T05:46:09.166Z,4.80
2019-01-30T05:46:45.920Z,5.43
2019-01-30T05:47:22.189Z,5.87
2019-01-30T05:47:58.351Z,4.80
2019-01-30T05:48:34.602Z,5.37
2019-01-30T05:49:10.824Z,6.37
2019-01-30T05:49:47.175Z,5.83
2019-01-30T05:50:23.417Z,5.87
2019-01-30T05:50:59.575Z,5.53
2019-01-30T05:51:35.749Z,4.70
2019-01-30T05:52:11.917Z,5.00
2019-01-30T05:52:48.148Z,4.90
2019-01-30T05:53:24.349Z,5.67
2019-01-30T05:54:00.498Z,5.57
2019-01-30T05:54:36.633Z,5.67
2019-01-30T05:55:13.714Z,5.03
2019-01-30T05:55:49.912Z,6.30
2019-01-30T05:56:26.029Z,5.13
2019-01-30T05:57:02.080Z,5.70
2019-01-30T05:57:38.171Z,6.10
2019-01-30T05:58:14.491Z,5.60
2019-01-30T05:58:50.804Z,5.33
2019-01-30T05:59:26.936Z,5.70
2019-01-30T06:00:03.186Z,6.00
2019-01-30T06:00:42.323Z,6.70
2019-01-30T06:01:18.553Z,5.30
2019-01-30T06:01:54.831Z,5.80
2019-01-30T06:02:30.957Z,6.30
2019-01-30T06:03:07.054Z,5.00
2019-01-30T06:03:43.270Z,5.23
2019-01-30T06:04:19.513Z,6.60
2019-01-30T06:04:55.748Z,4.90
2019-01-30T06:05:32.094Z,6.20
2019-01-30T06:06:08.163Z,5.57
2019-01-30T06:06:44.288Z,5.23
2019-01-30T06:07:20.472Z,5.27
2019-01-30T06:07:56.653Z,4.93
2019-01-30T06:08:33.018Z,5.50
2019-01-30T06:09:10.027Z,5.00
2019-01-30T06:09:46.127Z,5.40
2019-01-30T06:10:22.404Z,5.00
2019-01-30T06:10:58.483Z,6.53
2019-01-30T06:11:34.643Z,4.73
2019-01-30T06:12:10.914Z,5.17
2019-01-30T06:12:47.116Z,5.40
2019-01-30T06:13:23.193Z,5.50
2019-01-30T06:13:59.341Z,5.40
2019-01-30T06:14:35.612Z,5.20
2019-01-30T06:15:12.423Z,6.00
2019-01-30T06:15:48.658Z,6.07
2019-01-30T06:16:24.664Z,5.97
2019-01-30T06:17:00.745Z,6.97
2019-01-30T06:17:36.818Z,5.50
2019-01-30T06:18:12.920Z,5.57
2019-01-30T06:18:49.009Z,5.97
2019-01-30T06:19:25.124Z,5.33
2019-01-30T06:20:01.449Z,5.83
2019-01-30T06:20:37.606Z,5.90
2019-01-30T06:21:13.819Z,5.97
2019-01-30T06:21:49.982Z,5.63
2019-01-30T06:22:26.184Z,5.57
2019-01-30T06:23:02.277Z,4.93
2019-01-30T06:23:38.408Z,5.47
2019-01-30T06:24:14.528Z,5.90
2019-01-30T06:24:50.581Z,6.50
2019-01-30T06:25:27.061Z,5.50
2019-01-30T06:26:03.184Z,6.83
2019-01-30T06:26:39.228Z,5.73
2019-01-30T06:27:15.464Z,5.30
2019-01-30T06:27:51.747Z,5.30
2019-01-30T06:28:29.362Z,6.27
2019-01-30T06:29:05.614Z,6.60
2019-01-30T06:29:41.794Z,6.23
2019-01-30T06:30:18.950Z,7.00
2019-01-30T06:30:55.278Z,5.90
2019-01-30T06:31:31.409Z,5.73
2019-01-30T06:32:06.569Z,5.87
2019-01-30T06:32:42.942Z,5.50
2019-01-30T06:33:19.202Z,6.50
2019-01-30T06:33:55.593Z,5.03
2019-01-30T06:34:31.876Z,5.40
2019-01-30T06:35:08.181Z,6.30
2019-01-30T06:35:44.424Z,5.47
2019-01-30T06:36:20.554Z,5.70
2019-01-30T06:36:56.520Z,5.50
2019-01-30T06:37:32.588Z,5.20
2019-01-30T06:38:09.270Z,5.47
2019-01-30T06:38:45.399Z,4.70
2019-01-30T06:39:21.600Z,5.90
2019-01-30T06:39:57.786Z,4.93
2019-01-30T06:40:35.191Z,5.60
2019-01-30T06:41:11.398Z,4.77
2019-01-30T06:41:47.699Z,6.30
2019-01-30T06:42:23.807Z,5.10
2019-01-30T06:43:02.426Z,5.30
2019-01-30T06:43:37.962Z,5.87
2019-01-30T06:44:14.097Z,5.87
2019-01-30T06:44:50.297Z,5.90
2019-01-30T06:45:26.544Z,6.20
2019-01-30T06:46:02.717Z,4.80
2019-01-30T06:46:38.859Z,5.50
2019-01-30T06:47:15.305Z,5.57
2019-01-30T06:47:51.306Z,5.77
2019-01-30T06:48:27.421Z,6.20
2019-01-30T06:49:03.572Z,5.90
2019-01-30T06:49:39.687Z,5.30
2019-01-30T06:50:15.957Z,5.67
2019-01-30T06:50:52.144Z,5.50
2019-01-30T06:51:28.179Z,4.60
2019-01-30T06:52:04.380Z,5.90
2019-01-30T06:52:40.670Z,5.50
2019-01-30T06:53:16.716Z,5.10
2019-01-30T06:53:53.042Z,6.60
2019-01-30T06:54:29.144Z,4.80
2019-01-30T06:55:05.243Z,5.00
2019-01-30T06:55:41.392Z,5.77
2019-01-30T06:56:17.636Z,5.20
2019-01-30T06:56:53.950Z,5.83
2019-01-30T06:57:30.256Z,5.70
2019-01-30T06:58:06.404Z,5.23
2019-01-30T06:58:42.707Z,6.17
2019-01-30T06:59:18.761Z,5.40
2019-01-30T06:59:55.047Z,5.20
2019-01-30T07:00:31.377Z,5.00
2019-01-30T07:01:07.502Z,4.83
2019-01-30T07:01:43.685Z,4.80
2019-01-30T07:02:19.772Z,5.50
2019-01-30T07:02:56.289Z,5.53
2019-01-30T07:03:32.448Z,5.63
2019-01-30T07:04:08.673Z,5.60
2019-01-30T07:04:44.848Z,5.70
2019-01-30T07:05:21.085Z,5.40
2019-01-30T07:05:57.378Z,5.87
2019-01-30T07:06:33.695Z,5.80
2019-01-30T07:07:09.811Z,4.80
2019-01-30T07:07:45.890Z,5.83
2019-01-30T07:08:22.164Z,5.63
2019-01-30T07:08:58.310Z,6.17
2019-01-30T07:09:34.511Z,5.37
2019-01-30T07:10:18.941Z,5.33
2019-01-30T07:10:55.139Z,5.90
2019-01-30T07:11:31.338Z,6.17
2019-01-30T07:12:10.347Z,6.13
2019-01-30T07:12:46.864Z,5.50
2019-01-30T07:13:24.185Z,6.87
2019-01-30T07:14:00.416Z,6.70
2019-01-30T07:14:36.482Z,5.83
2019-01-30T07:15:12.659Z,6.23
2019-01-30T07:15:48.807Z,6.13
2019-01-30T07:16:24.888Z,5.80
2019-01-30T07:17:00.950Z,6.07
2019-01-30T07:17:36.974Z,5.30
2019-01-30T07:18:13.159Z,5.00
2019-01-30T07:18:49.123Z,5.90
2019-01-30T07:19:25.261Z,6.40
2019-01-30T07:20:01.534Z,6.53
2019-01-30T07:20:37.713Z,5.90
2019-01-30T07:21:13.719Z,5.50
2019-01-30T07:21:50.020Z,6.00
2019-01-30T07:22:26.182Z,4.77
2019-01-30T07:23:02.458Z,5.83
2019-01-30T07:23:38.428Z,7.30
2019-01-30T07:24:14.625Z,6.90
2019-01-30T07:24:50.734Z,5.97
2019-01-30T07:25:26.823Z,4.70
2019-01-30T07:26:03.120Z,8.20
2019-01-30T07:26:39.215Z,11.67
2019-01-30T07:27:15.715Z,8.73
2019-01-30T07:27:51.833Z,6.60
2019-01-30T07:28:27.913Z,6.40
2019-01-30T07:29:04.012Z,6.90
2019-01-30T07:29:40.320Z,6.00
2019-01-30T07:30:30.813Z,6.17
2019-01-30T07:31:07.118Z,5.63
2019-01-30T07:31:43.281Z,5.80
2019-01-30T07:32:19.524Z,4.70
2019-01-30T07:32:55.703Z,5.27
2019-01-30T07:33:31.975Z,6.37
2019-01-30T07:34:08.177Z,6.17
2019-01-30T07:34:44.297Z,10.00
2019-01-30T07:35:20.412Z,8.97
2019-01-30T07:35:56.511Z,6.77
2019-01-30T07:36:32.625Z,6.53
2019-01-30T07:37:08.772Z,5.70
2019-01-30T07:37:44.938Z,5.37
2019-01-30T07:38:21.285Z,5.73
2019-01-30T07:38:57.414Z,5.00
2019-01-30T07:39:33.463Z,4.47
2019-01-30T07:40:10.318Z,5.83
2019-01-30T07:40:46.558Z,5.00
2019-01-30T07:41:22.797Z,4.60
2019-01-30T07:41:58.880Z,5.03
2019-01-30T07:42:34.959Z,4.40
2019-01-30T07:43:11.064Z,5.33
2019-01-30T07:43:47.066Z,5.13
2019-01-30T07:44:23.131Z,5.63
2019-01-30T07:44:59.337Z,5.60
2019-01-30T07:45:35.451Z,6.97
2019-01-30T07:46:11.534Z,7.10
2019-01-30T07:46:47.647Z,6.40
2019-01-30T07:47:23.854Z,5.97
2019-01-30T07:47:59.932Z,5.20
2019-01-30T07:48:35.993Z,5.47
2019-01-30T07:49:12.193Z,5.30
2019-01-30T07:49:48.350Z,4.47
2019-01-30T07:50:24.370Z,5.20
2019-01-30T07:51:00.366Z,6.23
2019-01-30T07:51:36.867Z,5.00
2019-01-30T07:52:13.018Z,5.13
2019-01-30T07:52:49.094Z,5.87
2019-01-30T07:53:25.377Z,4.70
2019-01-30T07:54:01.424Z,4.67
2019-01-30T07:54:37.913Z,5.83
2019-01-30T07:55:16.225Z,5.13
2019-01-30T07:55:52.411Z,5.43
2019-01-30T07:56:28.969Z,5.40
2019-01-30T07:57:05.333Z,5.90
2019-01-30T07:57:41.561Z,4.53
2019-01-30T07:58:17.646Z,4.30
2019-01-30T07:58:54.049Z,4.77
2019-01-30T07:59:32.020Z,5.70
2019-01-30T08:00:10.724Z,5.10
2019-01-30T08:00:46.753Z,5.30
2019-01-30T08:01:23.028Z,5.30
2019-01-30T08:01:59.090Z,5.00
2019-01-30T08:02:35.416Z,4.37
2019-01-30T08:03:11.519Z,3.97
2019-01-30T08:03:47.498Z,5.13